Time;durP1;ratioP1;P1;durP2;ratioP2;P2;SDS_P1;SDS_P2;PMS_P1;PMS_P2;Temp;Humidity;BMP_temperature;BMP_pressure;BME280_temperature;BME280_humidity;BME280_pressure;Samples;Min_cycle;Max_cycle;Signal;HPM_P1;HPM_P2
2021/11/12 00:04:08;;;;;;;90.60;21.83;;;5.40;90.90;;;;;;6201220;28;20504;-80
2021/11/12 00:13:48;;;;;;;114.00;23.55;;;5.40;90.90;;;;;;6211955;28;20062;-81
2021/11/12 00:16:51;;;;;;;85.13;20.83;;;5.30;90.90;;;;;;6205062;28;20133;-81
2021/11/12 00:19:54;;;;;;;75.28;20.27;;;5.20;91.10;;;;;;6204923;28;20046;-81
2021/11/12 00:22:56;;;;;;;117.25;24.25;;;5.30;91.20;;;;;;6206770;28;20493;-81
2021/11/12 00:26:00;;;;;;;86.15;21.65;;;5.30;91.10;;;;;;6204302;28;20046;-81
2021/11/12 00:29:03;;;;;;;113.30;22.55;;;5.30;91.10;;;;;;6204011;28;20054;-81
2021/11/12 00:32:09;;;;;;;105.35;21.30;;;5.30;91.10;;;;;;6204273;28;20113;-81
2021/11/12 00:35:23;;;;;;;113.72;21.83;;;5.30;91.10;;;;;;6204724;28;20140;-81
2021/11/12 00:38:28;;;;;;;88.35;20.50;;;5.30;91.10;;;;;;6203672;28;20051;-81
2021/11/12 00:41:38;;;;;;;106.95;20.95;;;5.30;91.10;;;;;;6203673;28;20508;-79
2021/11/12 00:44:43;;;;;;;105.32;20.95;;;5.40;91.10;;;;;;6203266;28;20397;-81
2021/11/12 00:47:49;;;;;;;99.63;20.95;;;5.30;91.00;;;;;;6203278;28;20050;-81
2021/11/12 00:54:17;;;;;;;77.22;21.30;;;5.20;91.10;;;;;;6192479;28;20516;-80
2021/11/12 00:57:19;;;;;;;72.32;20.38;;;5.30;91.20;;;;;;6206518;28;20046;-81
2021/11/12 01:00:22;;;;;;;67.63;17.42;;;5.30;91.20;;;;;;6205414;28;20056;-83
2021/11/12 01:03:25;;;;;;;132.30;25.25;;;5.40;91.10;;;;;;6204186;28;20054;-81
2021/11/12 01:06:28;;;;;;;110.00;21.42;;;5.30;90.90;;;;;;6202787;28;20181;-81
2021/11/12 01:09:30;;;;;;;109.32;21.13;;;5.20;91.10;;;;;;6202205;28;20137;-80
2021/11/12 01:12:32;;;;;;;80.00;19.80;;;5.10;91.40;;;;;;6202270;28;20177;-81
2021/11/12 01:15:34;;;;;;;94.60;20.30;;;5.10;91.40;;;;;;6203648;28;20053;-82
2021/11/12 01:18:37;;;;;;;74.57;20.13;;;5.20;91.40;;;;;;6206828;28;20560;-81
2021/11/12 01:21:42;;;;;;;80.50;20.13;;;5.20;91.30;;;;;;6206574;28;20522;-81
2021/11/12 01:24:45;;;;;;;94.15;20.65;;;5.20;91.30;;;;;;6198714;28;20046;-80
2021/11/12 01:27:47;;;;;;;81.18;20.80;;;5.30;91.20;;;;;;6182053;28;20533;-81
2021/11/12 01:30:49;;;;;;;110.05;22.52;;;5.40;90.90;;;;;;6182188;28;20080;-81
2021/11/12 01:33:50;;;;;;;105.35;22.73;;;5.30;91.00;;;;;;6205270;28;20065;-80
2021/11/12 01:36:54;;;;;;;119.85;21.20;;;5.20;91.10;;;;;;6206931;28;20133;-82
2021/11/12 01:39:59;;;;;;;92.60;19.98;;;5.20;91.00;;;;;;6206291;28;20140;-82
2021/11/12 01:43:06;;;;;;;88.57;19.08;;;5.20;91.00;;;;;;6207279;28;20126;-81
2021/11/12 01:49:29;;;;;;;82.63;20.17;;;5.00;91.20;;;;;;6225434;28;20165;-81
2021/11/12 01:52:36;;;;;;;104.43;20.00;;;5.10;91.50;;;;;;6229607;28;20125;-81
2021/11/12 01:55:44;;;;;;;78.18;19.38;;;5.10;91.30;;;;;;6229734;28;20565;-80
2021/11/12 02:02:11;;;;;;;85.93;20.35;;;5.10;91.20;;;;;;6223302;28;20042;-81
2021/11/12 02:05:14;;;;;;;81.47;19.05;;;5.20;91.20;;;;;;6229432;28;20096;-81
2021/11/12 02:08:17;;;;;;;83.07;18.00;;;5.20;91.10;;;;;;6228923;28;20049;-81
2021/11/12 02:11:20;;;;;;;106.95;19.42;;;5.20;90.80;;;;;;6229176;28;20046;-81
2021/11/12 02:14:25;;;;;;;81.95;18.98;;;5.20;90.80;;;;;;6229102;28;20129;-82
2021/11/12 02:17:29;;;;;;;80.93;19.65;;;5.00;90.90;;;;;;6229345;28;20133;-80
2021/11/12 02:20:36;;;;;;;86.45;20.10;;;4.90;91.20;;;;;;6228201;28;20042;-81
2021/11/12 02:23:42;;;;;;;82.45;18.27;;;4.90;91.20;;;;;;6228702;28;20060;-81
2021/11/12 02:26:46;;;;;;;93.80;19.83;;;5.00;91.20;;;;;;6227747;28;20054;-81
2021/11/12 02:29:53;;;;;;;103.00;21.40;;;5.00;91.20;;;;;;6227915;28;20060;-81
2021/11/12 02:33:01;;;;;;;74.82;20.35;;;5.00;91.20;;;;;;6228066;28;20181;-81
2021/11/12 02:36:06;;;;;;;106.63;19.17;;;5.00;91.10;;;;;;6227920;28;20626;-80
2021/11/12 02:39:12;;;;;;;91.03;19.55;;;5.00;91.00;;;;;;6228966;28;20060;-81
2021/11/12 02:42:14;;;;;;;109.78;22.15;;;5.00;91.20;;;;;;6227564;28;20038;-81
2021/11/12 02:45:16;;;;;;;99.75;20.48;;;5.00;91.20;;;;;;6227781;28;20526;-81
2021/11/12 02:48:19;;;;;;;79.53;17.40;;;5.00;90.90;;;;;;6224380;28;20522;-81
2021/11/12 02:51:27;;;;;;;117.68;21.02;;;5.00;91.10;;;;;;6228383;28;20056;-82
2021/11/12 02:54:30;;;;;;;77.63;19.58;;;4.90;91.20;;;;;;6228235;28;20046;-81
2021/11/12 02:57:35;;;;;;;72.55;19.80;;;4.90;91.30;;;;;;6227634;28;20053;-82
2021/11/12 03:00:39;;;;;;;73.55;19.10;;;5.00;91.30;;;;;;6227511;28;20046;-81
2021/11/12 03:03:41;;;;;;;84.45;16.92;;;5.00;91.10;;;;;;6228155;28;20500;-80
2021/11/12 03:06:43;;;;;;;84.25;20.10;;;5.00;91.10;;;;;;6230302;28;20121;-80
2021/11/12 03:09:46;;;;;;;84.50;17.70;;;5.00;91.10;;;;;;6229118;28;20050;-81
2021/11/12 03:12:48;;;;;;;81.57;19.67;;;5.00;90.90;;;;;;6229284;28;20053;-80
2021/11/12 03:15:50;;;;;;;74.43;18.55;;;5.00;91.00;;;;;;6228877;28;20060;-81
2021/11/12 03:18:54;;;;;;;62.03;17.20;;;5.10;91.00;;;;;;6228676;28;20558;-81
2021/11/12 03:22:01;;;;;;;85.35;21.33;;;5.10;91.00;;;;;;6227881;28;20042;-81
2021/11/12 03:25:08;;;;;;;81.22;18.55;;;5.20;90.90;;;;;;6229107;28;20050;-81
2021/11/12 03:28:20;;;;;;;90.75;19.60;;;5.20;90.80;;;;;;6229072;28;20048;-81
2021/11/12 03:46:53;;;;;;;66.93;16.98;;;5.20;90.70;;;;;;6229011;28;20046;-81
2021/11/12 04:01:50;;;;;;;84.03;17.45;;;5.00;90.70;;;;;;6210784;28;20046;-81
2021/11/12 04:05:07;;;;;;;77.75;18.73;;;5.00;90.70;;;;;;6208499;28;20424;-82
2021/11/12 04:18:15;;;;;;;52.67;13.95;;;4.90;90.90;;;;;;6207751;28;20424;-80
2021/11/12 04:41:58;;;;;;;66.43;17.00;;;4.90;90.90;;;;;;6203640;28;20039;-80
2021/11/12 05:45:15;;;;;;;45.67;13.18;;;4.70;91.20;;;;;;6226767;28;20042;-82
2021/11/12 05:51:43;;;;;;;59.65;13.27;;;4.70;91.10;;;;;;6226314;28;20128;-82
2021/11/12 05:55:08;;;;;;;50.92;15.43;;;4.70;91.00;;;;;;6226882;28;20076;-81
2021/11/12 05:58:09;;;;;;;47.17;12.05;;;4.70;90.90;;;;;;6226438;28;20093;-81
2021/11/12 06:01:11;;;;;;;54.15;13.95;;;4.60;90.80;;;;;;6226797;28;20526;-81
2021/11/12 06:04:14;;;;;;;40.17;12.55;;;4.50;91.00;;;;;;6240720;28;20511;-81
2021/11/12 06:07:16;;;;;;;34.33;11.30;;;4.40;91.30;;;;;;6252756;28;20086;-81
2021/11/12 06:10:19;;;;;;;48.85;13.40;;;4.50;91.10;;;;;;6252924;28;20049;-81
2021/11/12 06:13:21;;;;;;;43.13;12.40;;;4.50;91.00;;;;;;6251110;28;20128;-81
2021/11/12 06:16:23;;;;;;;39.72;11.90;;;4.40;91.00;;;;;;6251355;28;20048;-81
2021/11/12 06:19:26;;;;;;;44.40;12.68;;;4.40;91.10;;;;;;6251603;28;20088;-81
2021/11/12 06:22:29;;;;;;;40.95;10.95;;;4.50;91.10;;;;;;6251809;28;20053;-82
2021/11/12 06:25:32;;;;;;;45.42;10.80;;;4.50;90.90;;;;;;6252165;28;20056;-81
2021/11/12 06:28:34;;;;;;;37.95;11.73;;;4.30;91.10;;;;;;6250754;28;20049;-80
2021/11/12 06:31:36;;;;;;;29.65;10.38;;;4.20;91.10;;;;;;6251124;28;20490;-81
2021/11/12 06:34:39;;;;;;;42.92;11.50;;;4.30;91.30;;;;;;6251017;28;20526;-81
2021/11/12 06:37:41;;;;;;;38.45;12.02;;;4.40;91.40;;;;;;6251065;28;20057;-82
2021/11/12 06:40:44;;;;;;;39.15;12.80;;;4.50;91.40;;;;;;6250491;28;20049;-81
2021/11/12 06:43:55;;;;;;;59.08;14.13;;;4.70;91.20;;;;;;6252024;28;20132;-81
2021/11/12 06:50:23;;;;;;;42.97;11.82;;;4.90;90.80;;;;;;6248894;28;20473;-82
2021/11/12 06:53:24;;;;;;;41.38;12.52;;;5.00;90.80;;;;;;6223438;28;20054;-82
2021/11/12 06:56:27;;;;;;;34.63;11.07;;;5.00;90.50;;;;;;6226872;28;20111;-82
2021/11/12 06:59:29;;;;;;;36.90;12.82;;;5.10;90.50;;;;;;6228714;28;20420;-82
2021/11/12 07:02:31;;;;;;;49.28;12.15;;;5.10;90.40;;;;;;6228385;28;20196;-82
2021/11/12 07:05:33;;;;;;;48.97;13.02;;;5.20;90.40;;;;;;6226936;28;20077;-82
2021/11/12 07:08:34;;;;;;;31.70;11.10;;;5.10;90.30;;;;;;6225432;28;20494;-82
2021/11/12 07:11:38;;;;;;;26.52;10.50;;;5.10;90.20;;;;;;6225694;28;20068;-82
2021/11/12 07:14:40;;;;;;;35.03;11.70;;;5.10;90.30;;;;;;6225731;28;20658;-83
2021/11/12 07:17:42;;;;;;;30.83;10.60;;;5.10;90.20;;;;;;6227363;28;20050;-83
2021/11/12 07:20:43;;;;;;;26.67;9.30;;;5.10;90.10;;;;;;6227064;28;20046;-83
2021/11/12 07:23:45;;;;;;;56.25;11.07;;;5.10;89.70;;;;;;6228286;28;20057;-83
2021/11/12 07:26:48;;;;;;;35.85;11.93;;;4.90;90.00;;;;;;6228329;28;20422;-83
2021/11/12 07:29:50;;;;;;;29.23;10.70;;;4.80;90.30;;;;;;6228591;28;20128;-83
2021/11/12 07:32:52;;;;;;;25.30;10.65;;;5.00;90.40;;;;;;6228222;28;20105;-83
2021/11/12 07:35:58;;;;;;;24.20;11.13;;;5.10;90.30;;;;;;6229032;28;20050;-83
2021/11/12 07:39:05;;;;;;;26.30;10.23;;;5.10;90.00;;;;;;6227655;28;20117;-83
2021/11/12 07:42:14;;;;;;;19.77;9.57;;;5.20;89.60;;;;;;6228067;28;20091;-82
2021/11/12 07:45:29;;;;;;;24.92;10.80;;;5.10;90.00;;;;;;6229153;28;20069;-81
2021/11/12 07:48:31;;;;;;;28.58;11.32;;;5.20;89.60;;;;;;6228063;28;20513;-82
2021/11/12 07:51:33;;;;;;;25.52;9.63;;;5.20;89.70;;;;;;6230633;28;20042;-82
2021/11/12 07:54:35;;;;;;;27.65;11.10;;;5.20;89.70;;;;;;6207837;28;20053;-82
2021/11/12 07:57:38;;;;;;;23.10;10.35;;;5.20;89.60;;;;;;6201850;28;20042;-82
2021/11/12 08:00:40;;;;;;;55.67;32.45;;;5.20;89.50;;;;;;6201172;28;20050;-82
2021/11/12 08:03:42;;;;;;;26.88;13.30;;;5.20;89.60;;;;;;6201814;28;20042;-81
2021/11/12 08:06:44;;;;;;;26.65;13.52;;;5.30;89.60;;;;;;6202231;28;20054;-82
2021/11/12 08:09:52;;;;;;;30.35;12.82;;;5.40;89.50;;;;;;6204929;28;20074;-82
2021/11/12 08:13:03;;;;;;;32.28;11.63;;;5.50;89.50;;;;;;6201656;28;20069;-81
2021/11/12 08:16:25;;;;;;;24.02;10.00;;;5.50;89.00;;;;;;6203296;28;20049;-83
2021/11/12 08:19:32;;;;;;;24.13;10.80;;;5.60;88.70;;;;;;6210889;28;20069;-81
2021/11/12 08:22:38;;;;;;;32.25;11.80;;;5.60;88.40;;;;;;6242749;28;20517;-81
2021/11/12 08:25:43;;;;;;;28.30;12.90;;;5.60;88.60;;;;;;6250037;28;20065;-81
2021/11/12 08:29:10;;;;;;;31.90;13.05;;;5.60;88.70;;;;;;6200828;28;20046;-80
2021/11/12 08:32:44;;;;;;;31.83;12.52;;;5.70;88.70;;;;;;6198662;28;20046;-80
2021/11/12 08:36:07;;;;;;;28.85;12.07;;;5.80;88.70;;;;;;6199628;28;20054;-81
2021/11/12 08:39:18;;;;;;;44.42;15.98;;;5.80;88.40;;;;;;6199991;28;20132;-80
2021/11/12 08:42:23;;;;;;;35.65;13.73;;;5.80;87.90;;;;;;6200014;28;20078;-81
2021/11/12 08:45:28;;;;;;;30.75;14.27;;;5.80;88.20;;;;;;6200281;28;20415;-80
2021/11/12 08:48:39;;;;;;;34.25;14.63;;;5.90;88.30;;;;;;6218214;28;20049;-80
2021/11/12 08:51:42;;;;;;;33.90;13.52;;;5.90;88.10;;;;;;6241144;28;20503;-81
2021/11/12 08:54:46;;;;;;;27.60;12.30;;;6.00;87.80;;;;;;6222110;28;20049;-80
2021/11/12 08:57:48;;;;;;;34.95;14.07;;;6.00;86.70;;;;;;6225025;28;20046;-82
2021/11/12 09:00:51;;;;;;;32.70;14.07;;;6.00;87.20;;;;;;6224375;28;20046;-82
2021/11/12 09:03:54;;;;;;;36.90;12.75;;;6.00;87.30;;;;;;6224624;28;20042;-81
2021/11/12 09:06:56;;;;;;;28.35;11.38;;;6.00;87.60;;;;;;6225381;28;20104;-81
2021/11/12 09:09:58;;;;;;;31.80;12.65;;;6.10;87.10;;;;;;6225855;28;20128;-81
2021/11/12 09:13:07;;;;;;;37.83;13.55;;;6.00;87.00;;;;;;6226416;28;20125;-81
2021/11/12 09:16:12;;;;;;;45.67;12.95;;;6.00;87.20;;;;;;6223710;28;20049;-81
2021/11/12 09:19:14;;;;;;;35.35;14.55;;;6.00;87.20;;;;;;6236608;28;20050;-82
2021/11/12 09:22:19;;;;;;;34.42;13.07;;;6.10;87.20;;;;;;6230489;28;20077;-82
2021/11/12 09:25:22;;;;;;;44.00;13.68;;;6.20;87.30;;;;;;6226835;28;20435;-81
2021/11/12 09:28:24;;;;;;;36.63;14.23;;;6.20;87.00;;;;;;6225786;28;20041;-81
2021/11/12 09:31:27;;;;;;;34.67;13.63;;;6.30;87.00;;;;;;6225152;28;20132;-81
2021/11/12 09:34:34;;;;;;;33.25;12.93;;;6.40;86.60;;;;;;6225297;28;20087;-80
2021/11/12 09:37:36;;;;;;;32.20;13.45;;;6.40;86.20;;;;;;6226336;28;20050;-81
2021/11/12 09:40:38;;;;;;;26.10;11.57;;;6.30;86.30;;;;;;6229851;28;20052;-82
2021/11/12 09:43:40;;;;;;;32.15;11.38;;;6.20;86.30;;;;;;6229034;28;20042;-81
2021/11/12 09:46:44;;;;;;;26.45;9.95;;;6.10;86.50;;;;;;6229326;28;20050;-82
2021/11/12 09:49:46;;;;;;;25.85;9.57;;;6.10;86.30;;;;;;6237406;28;20072;-81
2021/11/12 09:52:48;;;;;;;26.17;9.35;;;6.00;85.90;;;;;;6204096;28;20056;-81
2021/11/12 09:55:53;;;;;;;39.45;11.25;;;5.80;86.60;;;;;;6221086;28;20054;-81
2021/11/12 09:58:55;;;;;;;28.77;11.18;;;5.70;87.30;;;;;;6230036;28;20141;-81
2021/11/12 10:01:58;;;;;;;27.90;10.93;;;5.70;87.60;;;;;;6229706;28;20042;-81
2021/11/12 10:05:00;;;;;;;34.08;11.90;;;5.70;87.30;;;;;;6229866;28;20050;-81
2021/11/12 10:08:17;;;;;;;31.77;11.63;;;5.80;87.90;;;;;;6229522;28;20180;-81
2021/11/12 10:11:24;;;;;;;29.48;11.43;;;5.90;87.70;;;;;;6228516;28;20139;-81
2021/11/12 10:14:37;;;;;;;34.90;11.48;;;5.90;87.10;;;;;;6229409;28;20073;-81
2021/11/12 10:17:40;;;;;;;32.15;10.52;;;6.00;86.30;;;;;;6224179;28;20547;-82
2021/11/12 10:20:57;;;;;;;29.90;10.57;;;5.90;86.00;;;;;;6245424;28;20095;-81
2021/11/12 10:24:00;;;;;;;29.98;11.07;;;5.80;86.40;;;;;;6253149;28;20131;-80
2021/11/12 10:27:09;;;;;;;25.02;11.27;;;5.90;86.80;;;;;;6249917;28;20057;-82
2021/11/12 10:30:13;;;;;;;34.75;12.13;;;6.00;86.80;;;;;;6228470;28;20056;-81
2021/11/12 10:33:17;;;;;;;24.25;11.10;;;6.00;86.30;;;;;;6229148;28;20053;-81
2021/11/12 10:36:19;;;;;;;28.67;12.15;;;6.00;86.80;;;;;;6228375;28;20062;-81
2021/11/12 10:39:26;;;;;;;28.88;13.57;;;6.20;86.80;;;;;;6230727;28;20046;-82
2021/11/12 10:42:30;;;;;;;28.10;11.63;;;6.20;86.50;;;;;;6229120;28;20416;-82
2021/11/12 10:45:34;;;;;;;28.55;11.38;;;6.30;86.00;;;;;;6230456;28;20052;-81
2021/11/12 10:48:37;;;;;;;28.08;13.65;;;6.40;86.00;;;;;;6235004;28;20683;-81
2021/11/12 10:51:51;;;;;;;25.27;11.00;;;6.60;85.50;;;;;;6245407;28;20045;-82
2021/11/12 10:54:55;;;;;;;27.35;11.75;;;6.60;85.30;;;;;;6247439;28;20578;-81
2021/11/12 10:58:00;;;;;;;23.13;10.63;;;6.70;84.80;;;;;;6225651;28;20060;-82
2021/11/12 11:01:04;;;;;;;22.88;9.35;;;6.60;84.50;;;;;;6227052;28;20049;-80
2021/11/12 11:04:18;;;;;;;20.58;10.55;;;6.60;84.30;;;;;;6229329;28;20418;-83
2021/11/12 11:07:22;;;;;;;20.50;9.85;;;6.70;84.70;;;;;;6228357;28;20186;-81
2021/11/12 11:10:30;;;;;;;20.80;9.70;;;6.80;84.60;;;;;;6225248;28;20503;-80
2021/11/12 11:13:33;;;;;;;20.77;10.63;;;6.90;84.50;;;;;;6251036;22;20054;-80
2021/11/12 11:16:37;;;;;;;21.45;9.50;;;6.90;84.10;;;;;;6236312;28;20045;-80
2021/11/12 11:19:40;;;;;;;22.65;11.45;;;6.90;84.00;;;;;;6226487;28;20050;-79
2021/11/12 11:22:56;;;;;;;23.17;10.02;;;6.90;83.80;;;;;;6208083;28;20065;-82
2021/11/12 11:26:00;;;;;;;26.02;10.98;;;7.00;83.90;;;;;;6203100;28;20050;-81
2021/11/12 11:29:04;;;;;;;23.02;10.85;;;7.10;83.50;;;;;;6203915;28;20141;-82
2021/11/12 11:32:07;;;;;;;28.30;11.50;;;7.00;83.30;;;;;;6202200;28;20047;-81
2021/11/12 11:35:11;;;;;;;28.35;12.55;;;6.90;83.20;;;;;;6202994;28;20060;-80
2021/11/12 11:38:18;;;;;;;27.40;11.88;;;6.80;83.90;;;;;;6203522;28;20124;-81
2021/11/12 11:41:24;;;;;;;25.87;12.17;;;6.90;84.20;;;;;;6202467;28;20057;-80
2021/11/12 11:44:26;;;;;;;31.08;12.45;;;7.00;83.90;;;;;;6203396;28;20737;-79
2021/11/12 11:47:29;;;;;;;31.55;12.18;;;7.00;83.40;;;;;;6202895;28;20129;-79
2021/11/12 11:50:33;;;;;;;30.75;12.00;;;7.00;83.60;;;;;;6213633;28;20085;-79
2021/11/12 11:53:40;;;;;;;27.38;11.45;;;7.00;83.20;;;;;;6226006;28;20125;-79
2021/11/12 11:56:44;;;;;;;31.15;12.60;;;7.00;83.20;;;;;;6210745;28;20038;-79
2021/11/12 11:59:47;;;;;;;27.13;12.27;;;7.00;83.10;;;;;;6200671;28;20076;-79
2021/11/12 12:02:49;;;;;;;28.30;11.40;;;7.00;83.30;;;;;;6200665;28;20522;-79
2021/11/12 12:06:07;;;;;;;25.77;10.90;;;7.00;82.80;;;;;;6201179;28;20684;-79
2021/11/12 12:09:12;;;;;;;27.17;12.13;;;6.80;83.10;;;;;;6200607;28;20057;-79
2021/11/12 12:12:15;;;;;;;24.80;13.50;;;6.90;83.60;;;;;;6201061;28;20038;-79
2021/11/12 12:15:37;;;;;;;32.10;13.10;;;6.90;83.40;;;;;;6201969;28;20053;-80
2021/11/12 12:18:47;;;;;;;32.30;12.73;;;6.90;83.70;;;;;;6215381;28;20132;-81
2021/11/12 13:22:39;;;;;;;38.78;13.90;;;7.10;83.20;;;;;;6208675;28;20446;-83
2021/11/12 13:25:42;;;;;;;38.15;14.93;;;7.20;83.30;;;;;;6208611;28;20053;-82
2021/11/12 13:28:47;;;;;;;31.85;15.25;;;7.20;83.20;;;;;;6207410;28;20054;-83
2021/11/12 13:32:01;;;;;;;35.78;15.60;;;7.20;83.20;;;;;;6207021;28;20050;-83
2021/11/12 13:35:04;;;;;;;32.03;14.50;;;7.20;83.30;;;;;;6208073;28;20161;-83
2021/11/12 13:38:06;;;;;;;31.52;13.73;;;7.30;83.20;;;;;;6207558;28;20056;-84
2021/11/12 13:41:10;;;;;;;29.58;13.80;;;7.30;83.20;;;;;;6208332;28;20057;-83
2021/11/12 13:44:15;;;;;;;32.78;12.55;;;7.30;83.00;;;;;;6208879;28;20046;-83
2021/11/12 13:47:21;;;;;;;28.38;13.23;;;7.20;83.20;;;;;;6212056;28;20050;-83
2021/11/12 13:50:23;;;;;;;39.95;16.17;;;7.20;83.20;;;;;;6225051;28;20050;-83
2021/11/12 13:53:27;;;;;;;36.30;15.23;;;7.20;83.40;;;;;;6232212;28;20042;-82
2021/11/12 13:56:33;;;;;;;37.55;15.88;;;7.10;83.60;;;;;;6233235;28;20042;-81
2021/11/12 13:59:36;;;;;;;47.00;19.90;;;7.10;83.90;;;;;;6227843;28;20414;-81
2021/11/12 14:02:52;;;;;;;46.50;19.17;;;7.20;83.70;;;;;;6230854;28;20068;-78
2021/11/12 14:05:55;;;;;;;33.17;15.25;;;7.20;83.70;;;;;;6230249;28;20496;-81
2021/11/12 14:09:02;;;;;;;39.28;15.85;;;7.10;83.50;;;;;;6230557;28;20050;-80
2021/11/12 14:12:08;;;;;;;41.78;15.52;;;7.10;83.90;;;;;;6229858;28;20045;-81
2021/11/12 14:15:15;;;;;;;45.67;24.80;;;7.10;84.00;;;;;;6230340;28;20046;-82
2021/11/12 14:18:31;;;;;;;37.15;14.48;;;7.10;83.90;;;;;;6231089;28;20077;-81
2021/11/12 14:21:38;;;;;;;42.78;19.27;;;7.10;84.00;;;;;;6207331;28;20834;-81
2021/11/12 14:24:47;;;;;;;52.80;21.27;;;7.10;84.00;;;;;;6204738;28;20129;-80
2021/11/12 14:28:02;;;;;;;;;;;7.10;85.50;;;;;;6205593;28;20054;-82
2021/11/12 14:34:39;;;;;;;37.05;18.42;;;7.10;84.50;;;;;;6227178;28;20045;-82
2021/11/12 14:37:56;;;;;;;46.22;16.25;;;7.10;84.30;;;;;;6230072;28;20046;-81
2021/11/12 14:44:44;;;;;;;42.53;19.15;;;7.00;84.70;;;;;;6226620;28;20042;-81
2021/11/12 14:47:57;;;;;;;51.13;21.05;;;6.80;84.60;;;;;;6226990;28;20056;-79
2021/11/12 14:51:03;;;;;;;50.80;19.13;;;6.70;85.00;;;;;;6212572;28;20050;-79
2021/11/12 14:54:08;;;;;;;53.03;21.45;;;6.70;85.30;;;;;;6226910;28;20533;-79
2021/11/12 14:57:19;;;;;;;54.65;23.20;;;6.70;85.30;;;;;;6226249;28;20046;-78
2021/11/12 15:00:21;;;;;;;51.20;18.88;;;6.80;85.40;;;;;;6217081;28;20056;-79
2021/11/12 15:03:24;;;;;;;51.63;19.00;;;6.80;85.40;;;;;;6227739;28;20049;-78
2021/11/12 15:06:28;;;;;;;51.78;19.33;;;6.80;85.30;;;;;;6225909;28;20045;-79
2021/11/12 15:09:33;;;;;;;57.00;20.33;;;6.70;85.50;;;;;;6226408;28;20100;-80
2021/11/12 15:12:36;;;;;;;52.28;18.73;;;6.70;85.80;;;;;;6226753;28;20049;-79
2021/11/12 15:15:38;;;;;;;46.05;17.83;;;6.70;85.90;;;;;;6226511;28;20053;-80
2021/11/12 15:18:42;;;;;;;48.67;18.40;;;6.60;86.00;;;;;;6225895;28;20053;-79
2021/11/12 15:21:49;;;;;;;51.85;18.27;;;6.50;86.20;;;;;;6218023;28;20057;-78
2021/11/12 15:25:02;;;;;;;60.23;19.13;;;6.60;86.40;;;;;;6226791;28;20052;-80
2021/11/12 15:28:12;;;;;;;60.10;22.33;;;6.60;86.40;;;;;;6226425;28;20296;-78
2021/11/12 15:31:17;;;;;;;58.50;22.30;;;6.60;86.30;;;;;;6226062;28;20061;-79
2021/11/12 15:34:20;;;;;;;43.25;17.10;;;6.70;86.20;;;;;;6237224;28;20050;-80
2021/11/12 15:37:29;;;;;;;63.08;20.88;;;6.70;86.10;;;;;;6242959;28;20117;-77
2021/11/12 15:40:33;;;;;;;56.33;20.30;;;6.60;86.20;;;;;;6240996;28;20052;-79
2021/11/12 15:43:42;;;;;;;56.17;20.45;;;6.50;86.60;;;;;;6240178;28;20057;-81
2021/11/12 15:46:45;;;;;;;96.43;34.22;;;6.40;86.70;;;;;;6239653;28;20080;-79
2021/11/12 15:49:50;;;;;;;63.25;22.85;;;6.30;87.00;;;;;;6230855;28;20511;-80
2021/11/12 15:53:09;;;;;;;57.30;21.85;;;6.30;87.40;;;;;;6227822;28;20053;-78
2021/11/12 15:56:42;;;;;;;70.95;21.73;;;6.40;87.40;;;;;;6229930;28;20495;-78
2021/11/12 15:59:56;;;;;;;55.15;19.15;;;6.50;87.50;;;;;;6222382;28;20058;-80
2021/11/12 16:03:34;;;;;;;59.53;20.33;;;6.50;87.20;;;;;;6228023;28;20049;-82
2021/11/12 16:06:50;;;;;;;52.00;18.67;;;6.50;87.00;;;;;;6227262;28;20053;-84
2021/11/12 16:10:09;;;;;;;48.83;17.92;;;6.40;87.00;;;;;;6228827;28;20042;-82
2021/11/12 16:13:15;;;;;;;53.47;20.65;;;6.40;87.10;;;;;;6227499;28;20535;-82
2021/11/12 16:19:49;;;;;;;58.35;23.70;;;6.40;87.80;;;;;;6213934;28;20042;-82
2021/11/12 16:23:23;;;;;;;45.92;18.33;;;6.30;87.80;;;;;;6206928;28;20050;-83
2021/11/12 16:26:28;;;;;;;51.45;18.98;;;6.30;87.80;;;;;;6231932;28;20041;-82
2021/11/12 16:29:39;;;;;;;61.05;20.02;;;6.40;88.20;;;;;;6227948;28;20432;-81
2021/11/12 16:32:43;;;;;;;56.03;17.10;;;6.40;88.00;;;;;;6227955;28;20145;-79
2021/11/12 16:35:45;;;;;;;62.08;22.95;;;6.40;88.10;;;;;;6227330;28;20056;-81
2021/11/12 16:38:49;;;;;;;57.40;18.73;;;6.40;87.90;;;;;;6220182;28;20057;-81
2021/11/12 16:41:56;;;;;;;53.30;18.42;;;6.40;87.70;;;;;;6202566;28;20051;-80
2021/11/12 16:45:06;;;;;;;55.88;19.67;;;6.50;87.70;;;;;;6198097;28;20058;-84
2021/11/12 16:48:24;;;;;;;57.70;23.98;;;6.50;87.70;;;;;;6220157;28;20049;-82
2021/11/12 16:55:10;;;;;;;58.83;22.42;;;6.60;87.40;;;;;;6235810;28;19921;-82
2021/11/12 16:58:20;;;;;;;51.40;18.67;;;6.60;87.10;;;;;;6237147;28;20133;-85
2021/11/12 17:01:46;;;;;;;51.10;17.75;;;6.50;87.10;;;;;;6231946;28;20046;-81
2021/11/12 17:05:05;;;;;;;49.08;16.17;;;6.50;87.30;;;;;;6233031;28;20045;-80
2021/11/12 17:08:15;;;;;;;;;;;6.40;87.50;;;;;;6233959;28;20048;-81
2021/11/12 17:11:33;;;;;;;59.15;19.02;;;6.40;87.80;;;;;;6234817;28;19989;-83
2021/11/12 17:14:49;;;;;;;59.03;18.53;;;6.40;87.50;;;;;;6231098;28;20069;-84
2021/11/12 17:18:00;;;;;;;59.97;17.77;;;6.40;87.60;;;;;;6231602;28;20296;-81
2021/11/12 17:47:47;;;;;;;57.03;20.02;;;6.40;88.00;;;;;;6227958;28;20050;-82
2021/11/12 17:51:17;;;;;;;67.32;18.88;;;6.40;88.00;;;;;;6220238;28;20058;-82
2021/11/12 18:04:23;;;;;;;55.90;20.33;;;6.30;88.20;;;;;;6227724;28;20433;-82
2021/11/12 18:07:38;;;;;;;67.35;19.98;;;6.30;88.40;;;;;;6236901;28;20419;-83
2021/11/12 18:11:06;;;;;;;46.00;16.13;;;6.20;88.10;;;;;;6235259;28;20050;-85
2021/11/12 21:45:20;;;;;;;81.15;19.77;;;5.10;91.10;;;;;;6230089;28;20368;-78
2021/11/12 21:48:23;;;;;;;50.60;16.10;;;5.10;91.10;;;;;;6229518;28;20050;-79
2021/11/12 21:51:28;;;;;;;53.72;16.65;;;5.10;91.20;;;;;;6216857;28;20054;-80
2021/11/12 21:54:30;;;;;;;55.85;19.27;;;5.20;91.10;;;;;;6205672;28;20504;-80
2021/11/12 21:57:32;;;;;;;49.95;17.10;;;5.30;91.00;;;;;;6204729;28;20057;-78
2021/11/12 22:00:34;;;;;;;52.22;15.02;;;5.40;91.00;;;;;;6197997;28;20173;-81
2021/11/12 22:03:36;;;;;;;43.92;14.88;;;5.40;90.80;;;;;;6205527;28;20094;-81
2021/11/12 22:06:39;;;;;;;53.38;14.43;;;5.50;90.60;;;;;;6218467;28;20184;-82
2021/11/12 22:09:41;;;;;;;45.38;15.40;;;5.50;90.50;;;;;;6229756;28;20053;-80
2021/11/12 22:12:43;;;;;;;48.45;15.52;;;5.50;90.60;;;;;;6229900;28;20048;-81
2021/11/12 22:15:44;;;;;;;49.70;15.48;;;5.50;90.60;;;;;;6204776;28;20060;-82
2021/11/12 22:18:48;;;;;;;62.85;16.80;;;5.50;90.60;;;;;;6230779;28;20464;-83
2021/11/12 22:21:52;;;;;;;38.65;13.80;;;5.50;90.50;;;;;;6205793;28;20162;-81
2021/11/12 22:24:54;;;;;;;55.97;16.05;;;5.50;90.60;;;;;;6207306;28;20230;-81
2021/11/12 22:27:56;;;;;;;48.17;15.43;;;5.40;90.50;;;;;;6220469;28;20458;-81
2021/11/12 22:30:58;;;;;;;45.38;14.73;;;5.40;90.70;;;;;;6229848;28;20176;-81
2021/11/12 22:34:00;;;;;;;52.30;15.18;;;5.50;90.80;;;;;;6230176;28;20050;-81
2021/11/12 22:37:03;;;;;;;44.45;14.35;;;5.50;90.90;;;;;;6230240;28;20047;-82
2021/11/12 22:40:06;;;;;;;45.22;14.85;;;5.40;90.50;;;;;;6229987;28;20515;-81
2021/11/12 22:43:08;;;;;;;43.70;14.60;;;5.40;90.60;;;;;;6230573;28;20133;-80
2021/11/12 22:46:10;;;;;;;58.78;15.93;;;5.40;90.50;;;;;;6229728;28;20045;-80
2021/11/12 22:49:13;;;;;;;40.63;15.00;;;5.40;90.60;;;;;;6226247;28;20042;-83
2021/11/12 22:52:16;;;;;;;37.47;13.85;;;5.40;90.60;;;;;;6205851;28;20404;-80
2021/11/12 22:55:18;;;;;;;45.17;14.27;;;5.40;90.50;;;;;;6204849;28;20266;-81
2021/11/12 22:58:20;;;;;;;47.92;15.00;;;5.40;90.50;;;;;;6204597;28;20421;-81
2021/11/12 23:01:26;;;;;;;44.33;16.58;;;5.40;90.60;;;;;;6206053;28;20057;-80
2021/11/12 23:04:27;;;;;;;48.08;14.80;;;5.50;90.60;;;;;;6205573;28;20039;-82
2021/11/12 23:07:30;;;;;;;38.88;13.82;;;5.50;90.50;;;;;;6204560;28;20057;-82
2021/11/12 23:10:32;;;;;;;47.47;13.48;;;5.40;90.50;;;;;;6224450;28;20053;-82
2021/11/12 23:13:34;;;;;;;37.45;14.38;;;5.40;90.60;;;;;;6228209;28;20045;-81
2021/11/12 23:16:36;;;;;;;53.42;16.98;;;5.40;90.70;;;;;;6226701;28;20156;-81
2021/11/12 23:19:38;;;;;;;39.03;15.07;;;5.40;90.70;;;;;;6219887;28;20107;-81
2021/11/12 23:22:42;;;;;;;46.55;15.30;;;5.50;90.70;;;;;;6225540;28;20050;-82
2021/11/12 23:25:44;;;;;;;73.45;17.38;;;5.50;90.60;;;;;;6226747;28;20052;-82
2021/11/12 23:28:46;;;;;;;56.47;18.15;;;5.60;90.70;;;;;;6226900;28;20129;-82
2021/11/12 23:31:48;;;;;;;58.15;17.30;;;5.70;90.60;;;;;;6226752;28;20046;-82
2021/11/12 23:34:49;;;;;;;42.60;14.45;;;5.70;90.60;;;;;;6228217;28;20053;-82
2021/11/12 23:37:53;;;;;;;56.72;16.02;;;5.70;90.50;;;;;;6227422;28;20053;-81
2021/11/12 23:40:55;;;;;;;42.30;13.85;;;5.70;90.30;;;;;;6227742;28;20053;-82
2021/11/12 23:43:57;;;;;;;45.80;18.52;;;5.70;90.50;;;;;;6226520;28;20097;-81